sensor_id;sensor_type;location;lat;lon;timestamp;P1;durP1;ratioP1;P2;durP2;ratioP2
51006;SDS011;37034;47.886;-3.904;2023-04-24T00:00:34;17.30;;;3.10;;
51006;SDS011;37034;47.886;-3.904;2023-04-24T00:03:00;23.63;;;3.83;;
51006;SDS011;37034;47.886;-3.904;2023-04-24T00:05:28;18.45;;;3.58;;
51006;SDS011;37034;47.886;-3.904;2023-04-24T00:07:53;27.87;;;3.60;;
51006;SDS011;37034;47.886;-3.904;2023-04-24T00:10:20;14.57;;;2.90;;
51006;SDS011;37034;47.886;-3.904;2023-04-24T00:12:46;26.15;;;4.15;;
51006;SDS011;37034;47.886;-3.904;2023-04-24T00:15:12;18.98;;;4.10;;
51006;SDS011;37034;47.886;-3.904;2023-04-24T00:17:38;23.57;;;3.07;;
51006;SDS011;37034;47.886;-3.904;2023-04-24T00:20:04;22.90;;;3.20;;
51006;SDS011;37034;47.886;-3.904;2023-04-24T00:22:32;23.38;;;3.53;;
51006;SDS011;37034;47.886;-3.904;2023-04-24T00:24:58;25.73;;;4.53;;
51006;SDS011;37034;47.886;-3.904;2023-04-24T00:27:24;19.63;;;3.67;;
51006;SDS011;37034;47.886;-3.904;2023-04-24T00:29:50;18.77;;;2.25;;
51006;SDS011;37034;47.886;-3.904;2023-04-24T00:32:15;18.77;;;4.00;;
51006;SDS011;37034;47.886;-3.904;2023-04-24T00:37:08;32.33;;;3.95;;
51006;SDS011;37034;47.886;-3.904;2023-04-24T00:39:33;20.17;;;2.87;;
51006;SDS011;37034;47.886;-3.904;2023-04-24T00:41:59;19.03;;;3.43;;
51006;SDS011;37034;47.886;-3.904;2023-04-24T00:44:26;14.15;;;3.22;;
51006;SDS011;37034;47.886;-3.904;2023-04-24T00:46:52;20.15;;;3.17;;
51006;SDS011;37034;47.886;-3.904;2023-04-24T00:49:21;13.07;;;3.42;;
51006;SDS011;37034;47.886;-3.904;2023-04-24T00:51:47;19.45;;;3.67;;
51006;SDS011;37034;47.886;-3.904;2023-04-24T00:54:14;17.38;;;2.83;;
51006;SDS011;37034;47.886;-3.904;2023-04-24T00:56:41;25.55;;;4.10;;
51006;SDS011;37034;47.886;-3.904;2023-04-24T01:01:33;20.27;;;3.50;;
51006;SDS011;37034;47.886;-3.904;2023-04-24T01:04:00;22.25;;;3.45;;
51006;SDS011;37034;47.886;-3.904;2023-04-24T01:06:27;21.65;;;3.35;;
51006;SDS011;37034;47.886;-3.904;2023-04-24T01:08:56;22.95;;;3.25;;
51006;SDS011;37034;47.886;-3.904;2023-04-24T01:11:23;25.00;;;3.75;;
51006;SDS011;37034;47.886;-3.904;2023-04-24T01:13:50;24.33;;;3.28;;
51006;SDS011;37034;47.886;-3.904;2023-04-24T01:16:16;24.50;;;3.70;;
51006;SDS011;37034;47.886;-3.904;2023-04-24T01:18:44;20.33;;;3.20;;
51006;SDS011;37034;47.886;-3.904;2023-04-24T01:21:10;19.75;;;3.30;;
51006;SDS011;37034;47.886;-3.904;2023-04-24T01:23:40;19.05;;;3.33;;
51006;SDS011;37034;47.886;-3.904;2023-04-24T01:26:05;21.40;;;3.03;;
51006;SDS011;37034;47.886;-3.904;2023-04-24T01:28:31;18.80;;;3.30;;
51006;SDS011;37034;47.886;-3.904;2023-04-24T01:30:57;20.75;;;3.38;;
51006;SDS011;37034;47.886;-3.904;2023-04-24T01:33:23;23.95;;;4.03;;
51006;SDS011;37034;47.886;-3.904;2023-04-24T01:35:48;14.30;;;3.33;;
51006;SDS011;37034;47.886;-3.904;2023-04-24T01:40:40;24.67;;;3.80;;
51006;SDS011;37034;47.886;-3.904;2023-04-24T01:43:06;19.80;;;3.47;;
51006;SDS011;37034;47.886;-3.904;2023-04-24T01:45:32;20.02;;;3.90;;
51006;SDS011;37034;47.886;-3.904;2023-04-24T01:47:58;17.23;;;2.83;;
51006;SDS011;37034;47.886;-3.904;2023-04-24T01:50:25;20.48;;;3.28;;
51006;SDS011;37034;47.886;-3.904;2023-04-24T01:52:51;17.70;;;3.33;;
51006;SDS011;37034;47.886;-3.904;2023-04-24T01:55:17;17.15;;;3.15;;
51006;SDS011;37034;47.886;-3.904;2023-04-24T01:57:43;19.40;;;3.47;;
51006;SDS011;37034;47.886;-3.904;2023-04-24T02:00:08;17.40;;;3.67;;
51006;SDS011;37034;47.886;-3.904;2023-04-24T02:02:36;21.08;;;3.72;;
51006;SDS011;37034;47.886;-3.904;2023-04-24T02:05:05;20.02;;;3.40;;
51006;SDS011;37034;47.886;-3.904;2023-04-24T02:07:31;16.88;;;2.80;;
51006;SDS011;37034;47.886;-3.904;2023-04-24T02:09:57;16.50;;;2.58;;
51006;SDS011;37034;47.886;-3.904;2023-04-24T02:12:23;18.25;;;3.33;;
51006;SDS011;37034;47.886;-3.904;2023-04-24T02:14:49;16.30;;;2.80;;
51006;SDS011;37034;47.886;-3.904;2023-04-24T02:17:15;20.30;;;3.75;;
51006;SDS011;37034;47.886;-3.904;2023-04-24T02:19:41;20.13;;;3.70;;
51006;SDS011;37034;47.886;-3.904;2023-04-24T02:22:07;16.88;;;2.40;;
51006;SDS011;37034;47.886;-3.904;2023-04-24T02:24:32;22.17;;;3.57;;
51006;SDS011;37034;47.886;-3.904;2023-04-24T02:26:58;25.23;;;3.07;;
51006;SDS011;37034;47.886;-3.904;2023-04-24T02:29:24;22.20;;;3.83;;
51006;SDS011;37034;47.886;-3.904;2023-04-24T02:31:49;19.57;;;4.00;;
51006;SDS011;37034;47.886;-3.904;2023-04-24T02:34:15;16.70;;;3.57;;
51006;SDS011;37034;47.886;-3.904;2023-04-24T02:36:41;18.42;;;3.33;;
51006;SDS011;37034;47.886;-3.904;2023-04-24T02:39:07;21.73;;;3.50;;
51006;SDS011;37034;47.886;-3.904;2023-04-24T02:41:33;17.95;;;3.00;;
51006;SDS011;37034;47.886;-3.904;2023-04-24T02:43:58;15.50;;;2.92;;
51006;SDS011;37034;47.886;-3.904;2023-04-24T02:46:24;16.48;;;2.80;;
51006;SDS011;37034;47.886;-3.904;2023-04-24T02:48:50;20.17;;;3.08;;
51006;SDS011;37034;47.886;-3.904;2023-04-24T02:51:16;21.20;;;2.70;;
51006;SDS011;37034;47.886;-3.904;2023-04-24T02:53:42;19.87;;;3.53;;
51006;SDS011;37034;47.886;-3.904;2023-04-24T02:56:07;15.03;;;2.60;;
51006;SDS011;37034;47.886;-3.904;2023-04-24T02:58:33;15.93;;;4.17;;
51006;SDS011;37034;47.886;-3.904;2023-04-24T03:00:59;22.20;;;3.53;;
51006;SDS011;37034;47.886;-3.904;2023-04-24T03:03:25;18.75;;;2.95;;
51006;SDS011;37034;47.886;-3.904;2023-04-24T03:05:51;13.05;;;2.78;;
51006;SDS011;37034;47.886;-3.904;2023-04-24T03:08:17;16.15;;;3.03;;
51006;SDS011;37034;47.886;-3.904;2023-04-24T03:10:43;18.60;;;3.25;;
51006;SDS011;37034;47.886;-3.904;2023-04-24T03:13:09;19.65;;;3.67;;
51006;SDS011;37034;47.886;-3.904;2023-04-24T03:15:34;16.20;;;2.93;;
51006;SDS011;37034;47.886;-3.904;2023-04-24T03:18:00;13.87;;;2.77;;
51006;SDS011;37034;47.886;-3.904;2023-04-24T03:20:27;13.23;;;2.58;;
51006;SDS011;37034;47.886;-3.904;2023-04-24T03:22:53;12.57;;;2.35;;
51006;SDS011;37034;47.886;-3.904;2023-04-24T03:25:19;12.57;;;3.17;;
51006;SDS011;37034;47.886;-3.904;2023-04-24T03:27:44;16.83;;;3.33;;
51006;SDS011;37034;47.886;-3.904;2023-04-24T03:30:10;13.57;;;2.60;;
51006;SDS011;37034;47.886;-3.904;2023-04-24T03:32:36;16.97;;;2.90;;
51006;SDS011;37034;47.886;-3.904;2023-04-24T03:35:01;18.33;;;3.13;;
51006;SDS011;37034;47.886;-3.904;2023-04-24T03:37:28;20.30;;;3.20;;
51006;SDS011;37034;47.886;-3.904;2023-04-24T03:39:54;18.23;;;3.17;;
51006;SDS011;37034;47.886;-3.904;2023-04-24T03:42:19;14.65;;;3.30;;
51006;SDS011;37034;47.886;-3.904;2023-04-24T03:44:45;22.53;;;3.77;;
51006;SDS011;37034;47.886;-3.904;2023-04-24T03:47:11;17.40;;;2.70;;
51006;SDS011;37034;47.886;-3.904;2023-04-24T03:49:36;13.90;;;2.57;;
51006;SDS011;37034;47.886;-3.904;2023-04-24T03:52:02;15.07;;;2.40;;
51006;SDS011;37034;47.886;-3.904;2023-04-24T03:54:28;15.80;;;3.20;;
51006;SDS011;37034;47.886;-3.904;2023-04-24T03:56:53;20.40;;;3.70;;
51006;SDS011;37034;47.886;-3.904;2023-04-24T03:59:19;11.70;;;2.23;;
51006;SDS011;37034;47.886;-3.904;2023-04-24T04:01:45;15.67;;;3.67;;
51006;SDS011;37034;47.886;-3.904;2023-04-24T04:04:11;28.02;;;4.32;;
51006;SDS011;37034;47.886;-3.904;2023-04-24T04:06:37;15.93;;;3.30;;
51006;SDS011;37034;47.886;-3.904;2023-04-24T04:09:02;20.02;;;3.80;;
51006;SDS011;37034;47.886;-3.904;2023-04-24T04:11:28;19.30;;;3.97;;
51006;SDS011;37034;47.886;-3.904;2023-04-24T04:13:54;19.90;;;3.13;;
51006;SDS011;37034;47.886;-3.904;2023-04-24T04:16:21;14.70;;;2.75;;
51006;SDS011;37034;47.886;-3.904;2023-04-24T04:18:47;16.30;;;3.55;;
51006;SDS011;37034;47.886;-3.904;2023-04-24T04:21:13;16.45;;;2.95;;
51006;SDS011;37034;47.886;-3.904;2023-04-24T04:23:39;14.75;;;2.72;;
51006;SDS011;37034;47.886;-3.904;2023-04-24T04:26:05;13.70;;;2.50;;
51006;SDS011;37034;47.886;-3.904;2023-04-24T04:28:31;22.48;;;3.53;;
51006;SDS011;37034;47.886;-3.904;2023-04-24T04:30:57;26.17;;;3.00;;
51006;SDS011;37034;47.886;-3.904;2023-04-24T04:33:23;19.13;;;3.53;;
51006;SDS011;37034;47.886;-3.904;2023-04-24T04:35:49;20.42;;;3.03;;
51006;SDS011;37034;47.886;-3.904;2023-04-24T04:38:17;19.08;;;2.53;;
51006;SDS011;37034;47.886;-3.904;2023-04-24T04:40:43;18.55;;;2.70;;
51006;SDS011;37034;47.886;-3.904;2023-04-24T04:43:09;19.92;;;3.38;;
51006;SDS011;37034;47.886;-3.904;2023-04-24T04:45:36;23.05;;;3.38;;
51006;SDS011;37034;47.886;-3.904;2023-04-24T04:48:04;21.02;;;3.13;;
51006;SDS011;37034;47.886;-3.904;2023-04-24T04:50:31;25.60;;;3.92;;
51006;SDS011;37034;47.886;-3.904;2023-04-24T04:52:56;22.90;;;3.27;;
51006;SDS011;37034;47.886;-3.904;2023-04-24T04:55:22;20.60;;;3.67;;
51006;SDS011;37034;47.886;-3.904;2023-04-24T04:57:48;17.60;;;3.40;;
51006;SDS011;37034;47.886;-3.904;2023-04-24T05:00:13;21.30;;;4.37;;
51006;SDS011;37034;47.886;-3.904;2023-04-24T05:02:40;22.23;;;3.60;;
51006;SDS011;37034;47.886;-3.904;2023-04-24T05:05:06;18.75;;;3.22;;
51006;SDS011;37034;47.886;-3.904;2023-04-24T05:07:32;15.60;;;3.17;;
51006;SDS011;37034;47.886;-3.904;2023-04-24T05:09:58;15.93;;;2.57;;
51006;SDS011;37034;47.886;-3.904;2023-04-24T05:12:24;20.53;;;2.90;;
51006;SDS011;37034;47.886;-3.904;2023-04-24T05:14:49;22.03;;;3.23;;
51006;SDS011;37034;47.886;-3.904;2023-04-24T05:17:15;21.37;;;3.53;;
51006;SDS011;37034;47.886;-3.904;2023-04-24T05:19:41;24.90;;;3.25;;
51006;SDS011;37034;47.886;-3.904;2023-04-24T05:22:07;20.20;;;3.90;;
51006;SDS011;37034;47.886;-3.904;2023-04-24T05:24:34;18.90;;;3.45;;
51006;SDS011;37034;47.886;-3.904;2023-04-24T05:27:00;20.67;;;3.38;;
51006;SDS011;37034;47.886;-3.904;2023-04-24T05:29:30;22.95;;;4.70;;
51006;SDS011;37034;47.886;-3.904;2023-04-24T05:31:56;24.35;;;3.90;;
51006;SDS011;37034;47.886;-3.904;2023-04-24T05:34:22;25.42;;;3.83;;
51006;SDS011;37034;47.886;-3.904;2023-04-24T05:36:48;21.05;;;3.33;;
51006;SDS011;37034;47.886;-3.904;2023-04-24T05:39:16;17.27;;;3.03;;
51006;SDS011;37034;47.886;-3.904;2023-04-24T05:41:43;20.27;;;3.43;;
51006;SDS011;37034;47.886;-3.904;2023-04-24T05:44:08;18.17;;;3.65;;
51006;SDS011;37034;47.886;-3.904;2023-04-24T05:46:34;16.77;;;3.37;;
51006;SDS011;37034;47.886;-3.904;2023-04-24T05:49:00;23.73;;;3.42;;
51006;SDS011;37034;47.886;-3.904;2023-04-24T05:53:52;21.73;;;3.20;;
51006;SDS011;37034;47.886;-3.904;2023-04-24T05:56:18;18.73;;;3.67;;
51006;SDS011;37034;47.886;-3.904;2023-04-24T05:58:45;17.58;;;2.97;;
51006;SDS011;37034;47.886;-3.904;2023-04-24T06:01:11;21.60;;;3.80;;
51006;SDS011;37034;47.886;-3.904;2023-04-24T06:03:39;22.83;;;3.80;;
51006;SDS011;37034;47.886;-3.904;2023-04-24T06:06:06;18.80;;;3.10;;
51006;SDS011;37034;47.886;-3.904;2023-04-24T06:08:32;14.07;;;3.28;;
51006;SDS011;37034;47.886;-3.904;2023-04-24T06:10:58;24.30;;;3.83;;
51006;SDS011;37034;47.886;-3.904;2023-04-24T06:13:24;28.80;;;3.75;;
51006;SDS011;37034;47.886;-3.904;2023-04-24T06:15:49;19.23;;;4.07;;
51006;SDS011;37034;47.886;-3.904;2023-04-24T06:18:16;19.45;;;2.95;;
51006;SDS011;37034;47.886;-3.904;2023-04-24T06:20:42;19.73;;;3.05;;
51006;SDS011;37034;47.886;-3.904;2023-04-24T06:23:08;19.23;;;3.10;;
51006;SDS011;37034;47.886;-3.904;2023-04-24T06:25:33;20.57;;;3.97;;
51006;SDS011;37034;47.886;-3.904;2023-04-24T06:27:59;22.25;;;3.65;;
51006;SDS011;37034;47.886;-3.904;2023-04-24T06:30:25;20.25;;;2.85;;
51006;SDS011;37034;47.886;-3.904;2023-04-24T06:35:17;19.98;;;3.80;;
51006;SDS011;37034;47.886;-3.904;2023-04-24T06:37:43;18.50;;;3.80;;
51006;SDS011;37034;47.886;-3.904;2023-04-24T06:40:09;17.03;;;4.13;;
51006;SDS011;37034;47.886;-3.904;2023-04-24T06:42:35;22.20;;;3.60;;
51006;SDS011;37034;47.886;-3.904;2023-04-24T06:45:01;19.38;;;3.05;;
51006;SDS011;37034;47.886;-3.904;2023-04-24T06:47:27;17.08;;;3.25;;
51006;SDS011;37034;47.886;-3.904;2023-04-24T06:49:53;13.67;;;2.70;;
51006;SDS011;37034;47.886;-3.904;2023-04-24T06:52:20;14.63;;;3.17;;
51006;SDS011;37034;47.886;-3.904;2023-04-24T06:54:46;14.85;;;3.05;;
51006;SDS011;37034;47.886;-3.904;2023-04-24T06:57:11;16.43;;;2.90;;
51006;SDS011;37034;47.886;-3.904;2023-04-24T06:59:37;21.10;;;3.85;;
51006;SDS011;37034;47.886;-3.904;2023-04-24T07:02:03;20.13;;;3.90;;
51006;SDS011;37034;47.886;-3.904;2023-04-24T07:04:29;20.42;;;3.17;;
51006;SDS011;37034;47.886;-3.904;2023-04-24T07:06:55;21.92;;;4.05;;
51006;SDS011;37034;47.886;-3.904;2023-04-24T07:09:23;20.83;;;3.22;;
51006;SDS011;37034;47.886;-3.904;2023-04-24T07:11:50;12.95;;;2.78;;
51006;SDS011;37034;47.886;-3.904;2023-04-24T07:14:19;14.60;;;3.33;;
51006;SDS011;37034;47.886;-3.904;2023-04-24T07:16:45;18.50;;;3.33;;
51006;SDS011;37034;47.886;-3.904;2023-04-24T07:19:12;23.90;;;3.90;;
51006;SDS011;37034;47.886;-3.904;2023-04-24T07:21:38;18.33;;;4.28;;
51006;SDS011;37034;47.886;-3.904;2023-04-24T07:24:04;16.02;;;2.90;;
51006;SDS011;37034;47.886;-3.904;2023-04-24T07:26:34;24.58;;;3.28;;
51006;SDS011;37034;47.886;-3.904;2023-04-24T07:28:59;16.53;;;3.50;;
51006;SDS011;37034;47.886;-3.904;2023-04-24T07:31:25;22.33;;;3.40;;
51006;SDS011;37034;47.886;-3.904;2023-04-24T07:33:51;16.60;;;3.03;;
51006;SDS011;37034;47.886;-3.904;2023-04-24T07:36:16;19.50;;;3.17;;
51006;SDS011;37034;47.886;-3.904;2023-04-24T07:38:44;19.73;;;3.38;;
51006;SDS011;37034;47.886;-3.904;2023-04-24T07:41:13;16.92;;;3.30;;
51006;SDS011;37034;47.886;-3.904;2023-04-24T07:43:39;11.68;;;2.08;;
51006;SDS011;37034;47.886;-3.904;2023-04-24T07:46:06;14.88;;;2.58;;
51006;SDS011;37034;47.886;-3.904;2023-04-24T07:48:32;21.02;;;3.47;;
51006;SDS011;37034;47.886;-3.904;2023-04-24T07:50:58;15.63;;;3.20;;
51006;SDS011;37034;47.886;-3.904;2023-04-24T07:53:23;16.57;;;3.63;;
51006;SDS011;37034;47.886;-3.904;2023-04-24T07:55:49;18.63;;;3.87;;
51006;SDS011;37034;47.886;-3.904;2023-04-24T07:58:15;15.87;;;2.70;;
51006;SDS011;37034;47.886;-3.904;2023-04-24T08:00:40;15.68;;;3.35;;
51006;SDS011;37034;47.886;-3.904;2023-04-24T08:03:06;18.97;;;3.40;;
51006;SDS011;37034;47.886;-3.904;2023-04-24T08:05:32;20.77;;;3.30;;
51006;SDS011;37034;47.886;-3.904;2023-04-24T08:07:58;22.90;;;3.83;;
51006;SDS011;37034;47.886;-3.904;2023-04-24T08:10:24;22.50;;;3.30;;
51006;SDS011;37034;47.886;-3.904;2023-04-24T08:12:52;21.63;;;4.03;;
51006;SDS011;37034;47.886;-3.904;2023-04-24T08:15:17;15.00;;;3.75;;
51006;SDS011;37034;47.886;-3.904;2023-04-24T08:17:43;21.83;;;3.83;;
51006;SDS011;37034;47.886;-3.904;2023-04-24T08:20:10;25.95;;;3.97;;
51006;SDS011;37034;47.886;-3.904;2023-04-24T08:22:42;21.88;;;3.72;;
51006;SDS011;37034;47.886;-3.904;2023-04-24T08:25:09;16.65;;;2.60;;
51006;SDS011;37034;47.886;-3.904;2023-04-24T08:27:35;22.52;;;2.90;;
51006;SDS011;37034;47.886;-3.904;2023-04-24T08:30:02;22.63;;;4.22;;
51006;SDS011;37034;47.886;-3.904;2023-04-24T08:32:36;21.98;;;3.50;;
51006;SDS011;37034;47.886;-3.904;2023-04-24T08:35:05;14.45;;;2.85;;
51006;SDS011;37034;47.886;-3.904;2023-04-24T08:37:34;19.45;;;3.50;;
51006;SDS011;37034;47.886;-3.904;2023-04-24T08:40:05;19.02;;;3.22;;
51006;SDS011;37034;47.886;-3.904;2023-04-24T08:42:56;17.55;;;3.17;;
51006;SDS011;37034;47.886;-3.904;2023-04-24T08:45:24;18.13;;;3.28;;
51006;SDS011;37034;47.886;-3.904;2023-04-24T08:47:51;15.60;;;3.03;;
51006;SDS011;37034;47.886;-3.904;2023-04-24T08:50:20;19.50;;;3.15;;
51006;SDS011;37034;47.886;-3.904;2023-04-24T08:52:49;20.15;;;3.75;;
51006;SDS011;37034;47.886;-3.904;2023-04-24T08:55:18;14.77;;;2.60;;
51006;SDS011;37034;47.886;-3.904;2023-04-24T08:57:45;24.08;;;3.17;;
51006;SDS011;37034;47.886;-3.904;2023-04-24T09:00:18;16.23;;;2.75;;
51006;SDS011;37034;47.886;-3.904;2023-04-24T09:02:48;20.98;;;3.42;;
51006;SDS011;37034;47.886;-3.904;2023-04-24T09:05:16;22.15;;;3.47;;
51006;SDS011;37034;47.886;-3.904;2023-04-24T09:07:44;14.18;;;2.40;;
51006;SDS011;37034;47.886;-3.904;2023-04-24T09:10:15;12.75;;;2.80;;
51006;SDS011;37034;47.886;-3.904;2023-04-24T09:12:41;15.25;;;2.78;;
51006;SDS011;37034;47.886;-3.904;2023-04-24T09:15:09;16.88;;;2.63;;
51006;SDS011;37034;47.886;-3.904;2023-04-24T09:17:35;13.73;;;2.20;;
51006;SDS011;37034;47.886;-3.904;2023-04-24T09:20:02;17.23;;;3.72;;
51006;SDS011;37034;47.886;-3.904;2023-04-24T09:22:31;15.52;;;2.60;;
51006;SDS011;37034;47.886;-3.904;2023-04-24T09:25:03;17.75;;;2.88;;
51006;SDS011;37034;47.886;-3.904;2023-04-24T09:27:31;19.15;;;2.70;;
51006;SDS011;37034;47.886;-3.904;2023-04-24T09:30:01;21.33;;;2.70;;
51006;SDS011;37034;47.886;-3.904;2023-04-24T09:35:14;18.90;;;2.95;;
51006;SDS011;37034;47.886;-3.904;2023-04-24T09:37:45;16.65;;;2.80;;
51006;SDS011;37034;47.886;-3.904;2023-04-24T09:40:18;17.88;;;2.85;;
51006;SDS011;37034;47.886;-3.904;2023-04-24T09:42:46;13.50;;;2.63;;
51006;SDS011;37034;47.886;-3.904;2023-04-24T09:45:20;18.00;;;2.95;;
51006;SDS011;37034;47.886;-3.904;2023-04-24T09:47:46;21.70;;;3.70;;
51006;SDS011;37034;47.886;-3.904;2023-04-24T09:50:18;20.35;;;3.60;;
51006;SDS011;37034;47.886;-3.904;2023-04-24T09:52:44;23.08;;;3.90;;
51006;SDS011;37034;47.886;-3.904;2023-04-24T09:55:19;19.75;;;3.58;;
51006;SDS011;37034;47.886;-3.904;2023-04-24T09:57:57;20.45;;;3.17;;
51006;SDS011;37034;47.886;-3.904;2023-04-24T10:00:29;18.23;;;3.70;;
51006;SDS011;37034;47.886;-3.904;2023-04-24T10:02:56;18.70;;;3.10;;
51006;SDS011;37034;47.886;-3.904;2023-04-24T10:05:30;21.08;;;3.50;;
51006;SDS011;37034;47.886;-3.904;2023-04-24T10:07:57;20.00;;;4.28;;
51006;SDS011;37034;47.886;-3.904;2023-04-24T10:10:25;16.90;;;2.47;;
51006;SDS011;37034;47.886;-3.904;2023-04-24T10:12:51;15.50;;;2.60;;
51006;SDS011;37034;47.886;-3.904;2023-04-24T10:15:18;20.20;;;3.40;;
51006;SDS011;37034;47.886;-3.904;2023-04-24T10:17:47;19.42;;;3.42;;
51006;SDS011;37034;47.886;-3.904;2023-04-24T10:20:17;15.80;;;2.45;;
51006;SDS011;37034;47.886;-3.904;2023-04-24T10:22:47;13.65;;;2.65;;
51006;SDS011;37034;47.886;-3.904;2023-04-24T10:25:20;15.13;;;2.22;;
51006;SDS011;37034;47.886;-3.904;2023-04-24T10:27:47;16.08;;;2.15;;
51006;SDS011;37034;47.886;-3.904;2023-04-24T10:30:14;15.73;;;2.78;;
51006;SDS011;37034;47.886;-3.904;2023-04-24T10:32:40;15.95;;;2.75;;
51006;SDS011;37034;47.886;-3.904;2023-04-24T10:35:06;16.92;;;2.90;;
51006;SDS011;37034;47.886;-3.904;2023-04-24T10:38:16;11.65;;;2.28;;
51006;SDS011;37034;47.886;-3.904;2023-04-24T10:40:26;17.08;;;2.47;;
51006;SDS011;37034;47.886;-3.904;2023-04-24T10:42:55;14.40;;;1.63;;
51006;SDS011;37034;47.886;-3.904;2023-04-24T10:45:22;14.02;;;2.13;;
51006;SDS011;37034;47.886;-3.904;2023-04-24T10:48:07;15.20;;;2.22;;
51006;SDS011;37034;47.886;-3.904;2023-04-24T10:53:14;12.63;;;2.13;;
51006;SDS011;37034;47.886;-3.904;2023-04-24T10:55:51;17.10;;;2.40;;
51006;SDS011;37034;47.886;-3.904;2023-04-24T10:58:22;13.60;;;2.70;;
51006;SDS011;37034;47.886;-3.904;2023-04-24T11:01:00;13.18;;;1.88;;
51006;SDS011;37034;47.886;-3.904;2023-04-24T11:06:02;17.30;;;2.83;;
51006;SDS011;37034;47.886;-3.904;2023-04-24T11:08:36;12.57;;;2.38;;
51006;SDS011;37034;47.886;-3.904;2023-04-24T11:11:03;13.07;;;2.10;;
51006;SDS011;37034;47.886;-3.904;2023-04-24T11:16:36;15.63;;;2.72;;
51006;SDS011;37034;47.886;-3.904;2023-04-24T11:19:18;15.50;;;1.98;;
51006;SDS011;37034;47.886;-3.904;2023-04-24T11:21:53;15.35;;;2.58;;
51006;SDS011;37034;47.886;-3.904;2023-04-24T11:34:56;10.73;;;1.73;;
51006;SDS011;37034;47.886;-3.904;2023-04-24T11:37:42;17.90;;;2.17;;
51006;SDS011;37034;47.886;-3.904;2023-04-24T11:40:11;11.18;;;2.33;;
51006;SDS011;37034;47.886;-3.904;2023-04-24T11:42:42;10.90;;;2.60;;
51006;SDS011;37034;47.886;-3.904;2023-04-24T11:45:13;10.75;;;1.55;;
51006;SDS011;37034;47.886;-3.904;2023-04-24T11:47:40;15.70;;;2.03;;
51006;SDS011;37034;47.886;-3.904;2023-04-24T11:50:07;11.43;;;1.90;;
51006;SDS011;37034;47.886;-3.904;2023-04-24T11:52:39;9.90;;;2.00;;
51006;SDS011;37034;47.886;-3.904;2023-04-24T11:55:07;11.30;;;2.33;;
51006;SDS011;37034;47.886;-3.904;2023-04-24T11:57:48;12.20;;;2.42;;
51006;SDS011;37034;47.886;-3.904;2023-04-24T12:00:16;10.63;;;1.88;;
51006;SDS011;37034;47.886;-3.904;2023-04-24T12:05:07;14.85;;;2.00;;
51006;SDS011;37034;47.886;-3.904;2023-04-24T12:07:40;14.52;;;2.42;;
51006;SDS011;37034;47.886;-3.904;2023-04-24T12:10:09;14.82;;;2.50;;
51006;SDS011;37034;47.886;-3.904;2023-04-24T12:12:35;13.40;;;1.90;;
51006;SDS011;37034;47.886;-3.904;2023-04-24T12:15:01;13.05;;;2.13;;
51006;SDS011;37034;47.886;-3.904;2023-04-24T12:17:32;12.00;;;1.63;;
51006;SDS011;37034;47.886;-3.904;2023-04-24T12:19:59;15.45;;;2.67;;
51006;SDS011;37034;47.886;-3.904;2023-04-24T12:22:28;13.80;;;2.10;;
51006;SDS011;37034;47.886;-3.904;2023-04-24T12:25:11;11.02;;;2.05;;
51006;SDS011;37034;47.886;-3.904;2023-04-24T12:27:37;9.68;;;1.75;;
51006;SDS011;37034;47.886;-3.904;2023-04-24T12:30:03;14.87;;;2.57;;
51006;SDS011;37034;47.886;-3.904;2023-04-24T12:32:30;13.32;;;1.73;;
51006;SDS011;37034;47.886;-3.904;2023-04-24T12:34:57;8.45;;;1.60;;
51006;SDS011;37034;47.886;-3.904;2023-04-24T12:37:26;12.32;;;2.33;;
51006;SDS011;37034;47.886;-3.904;2023-04-24T12:40:00;14.52;;;1.98;;
51006;SDS011;37034;47.886;-3.904;2023-04-24T12:42:27;10.95;;;2.35;;
51006;SDS011;37034;47.886;-3.904;2023-04-24T12:44:57;10.80;;;2.15;;
51006;SDS011;37034;47.886;-3.904;2023-04-24T12:47:31;11.75;;;2.45;;
51006;SDS011;37034;47.886;-3.904;2023-04-24T12:49:57;12.93;;;2.13;;
51006;SDS011;37034;47.886;-3.904;2023-04-24T12:52:24;13.55;;;2.25;;
51006;SDS011;37034;47.886;-3.904;2023-04-24T12:54:52;17.15;;;2.33;;
51006;SDS011;37034;47.886;-3.904;2023-04-24T12:57:18;9.32;;;1.70;;
51006;SDS011;37034;47.886;-3.904;2023-04-24T12:59:44;10.17;;;2.10;;
51006;SDS011;37034;47.886;-3.904;2023-04-24T13:02:10;14.15;;;2.20;;
51006;SDS011;37034;47.886;-3.904;2023-04-24T13:04:36;13.23;;;1.90;;
51006;SDS011;37034;47.886;-3.904;2023-04-24T13:07:02;10.50;;;1.83;;
51006;SDS011;37034;47.886;-3.904;2023-04-24T13:09:28;10.90;;;1.92;;
51006;SDS011;37034;47.886;-3.904;2023-04-24T13:11:54;14.05;;;2.13;;
51006;SDS011;37034;47.886;-3.904;2023-04-24T13:14:21;11.63;;;2.75;;
51006;SDS011;37034;47.886;-3.904;2023-04-24T13:16:47;13.23;;;2.33;;
51006;SDS011;37034;47.886;-3.904;2023-04-24T13:19:13;14.35;;;2.58;;
51006;SDS011;37034;47.886;-3.904;2023-04-24T13:21:39;9.32;;;2.00;;
51006;SDS011;37034;47.886;-3.904;2023-04-24T13:24:04;7.22;;;1.88;;
51006;SDS011;37034;47.886;-3.904;2023-04-24T13:26:32;9.30;;;2.08;;
51006;SDS011;37034;47.886;-3.904;2023-04-24T13:28:58;9.32;;;1.70;;
51006;SDS011;37034;47.886;-3.904;2023-04-24T13:31:24;9.90;;;1.95;;
51006;SDS011;37034;47.886;-3.904;2023-04-24T13:33:50;8.82;;;2.15;;
51006;SDS011;37034;47.886;-3.904;2023-04-24T13:36:15;9.43;;;1.83;;
51006;SDS011;37034;47.886;-3.904;2023-04-24T13:38:42;10.25;;;1.88;;
51006;SDS011;37034;47.886;-3.904;2023-04-24T13:41:09;9.73;;;2.25;;
51006;SDS011;37034;47.886;-3.904;2023-04-24T13:43:35;14.40;;;2.78;;
51006;SDS011;37034;47.886;-3.904;2023-04-24T13:46:00;9.98;;;1.58;;
51006;SDS011;37034;47.886;-3.904;2023-04-24T13:48:28;12.23;;;1.80;;
51006;SDS011;37034;47.886;-3.904;2023-04-24T13:53:20;12.23;;;1.90;;
51006;SDS011;37034;47.886;-3.904;2023-04-24T13:55:45;10.67;;;1.57;;
51006;SDS011;37034;47.886;-3.904;2023-04-24T13:58:11;12.07;;;2.20;;
51006;SDS011;37034;47.886;-3.904;2023-04-24T14:00:37;8.18;;;1.92;;
51006;SDS011;37034;47.886;-3.904;2023-04-24T14:03:02;10.00;;;2.45;;
51006;SDS011;37034;47.886;-3.904;2023-04-24T14:05:28;10.77;;;2.80;;
51006;SDS011;37034;47.886;-3.904;2023-04-24T14:07:54;21.23;;;3.33;;
51006;SDS011;37034;47.886;-3.904;2023-04-24T14:10:20;8.93;;;1.83;;
51006;SDS011;37034;47.886;-3.904;2023-04-24T14:12:45;10.18;;;1.65;;
51006;SDS011;37034;47.886;-3.904;2023-04-24T14:15:11;9.98;;;1.92;;
51006;SDS011;37034;47.886;-3.904;2023-04-24T14:17:38;10.68;;;1.88;;
51006;SDS011;37034;47.886;-3.904;2023-04-24T14:20:04;8.63;;;1.73;;
51006;SDS011;37034;47.886;-3.904;2023-04-24T14:22:31;12.35;;;1.95;;
51006;SDS011;37034;47.886;-3.904;2023-04-24T14:24:57;8.60;;;1.75;;
51006;SDS011;37034;47.886;-3.904;2023-04-24T14:27:24;10.90;;;1.75;;
51006;SDS011;37034;47.886;-3.904;2023-04-24T14:29:50;8.60;;;1.35;;
51006;SDS011;37034;47.886;-3.904;2023-04-24T14:32:15;13.70;;;2.33;;
51006;SDS011;37034;47.886;-3.904;2023-04-24T14:34:41;10.95;;;2.95;;
51006;SDS011;37034;47.886;-3.904;2023-04-24T14:37:07;11.60;;;2.70;;
51006;SDS011;37034;47.886;-3.904;2023-04-24T14:39:33;13.43;;;1.92;;
51006;SDS011;37034;47.886;-3.904;2023-04-24T14:41:58;11.90;;;2.00;;
51006;SDS011;37034;47.886;-3.904;2023-04-24T14:44:24;15.20;;;1.85;;
51006;SDS011;37034;47.886;-3.904;2023-04-24T14:46:51;13.55;;;1.90;;
51006;SDS011;37034;47.886;-3.904;2023-04-24T14:49:16;7.65;;;1.88;;
51006;SDS011;37034;47.886;-3.904;2023-04-24T14:51:42;7.22;;;1.60;;
51006;SDS011;37034;47.886;-3.904;2023-04-24T14:54:08;9.27;;;1.67;;
51006;SDS011;37034;47.886;-3.904;2023-04-24T14:56:34;19.85;;;2.35;;
51006;SDS011;37034;47.886;-3.904;2023-04-24T14:59:00;9.68;;;1.80;;
51006;SDS011;37034;47.886;-3.904;2023-04-24T15:01:25;10.43;;;1.50;;